createdAt,value
2023-04-16T00:02:13.260Z,62
2023-04-16T00:12:21.924Z,63
2023-04-16T00:22:30.732Z,64
2023-04-16T00:32:39.384Z,64
2023-04-16T00:42:47.932Z,65
2023-04-16T00:52:56.505Z,65
2023-04-16T01:03:05.321Z,65
2023-04-16T01:13:13.726Z,66
2023-04-16T01:23:22.338Z,66
2023-04-16T01:33:30.948Z,65
2023-04-16T01:43:40.272Z,65
2023-04-16T01:53:47.880Z,66
2023-04-16T02:03:56.676Z,66
2023-04-16T02:14:05.402Z,64
2023-04-16T02:24:14.155Z,63
2023-04-16T02:34:22.801Z,63
2023-04-16T02:44:31.509Z,63
2023-04-16T02:54:40.252Z,62
2023-04-16T03:04:48.933Z,62
2023-04-16T03:14:58.865Z,60
2023-04-16T03:25:07.526Z,58
2023-04-16T03:35:16.147Z,57
2023-04-16T03:45:24.831Z,55
2023-04-16T03:55:33.618Z,52
2023-04-16T04:05:42.391Z,49
2023-04-16T04:15:51.125Z,43
2023-04-16T04:25:59.822Z,39
2023-04-16T04:36:08.601Z,38
2023-04-16T04:46:17.255Z,37
2023-04-16T04:56:25.989Z,36
2023-04-16T05:06:34.635Z,36
2023-04-16T05:16:43.405Z,35
2023-04-16T05:26:52.079Z,35
2023-04-16T05:37:00.822Z,35
2023-04-16T05:47:09.482Z,35
2023-04-16T05:57:18.135Z,35
2023-04-16T06:07:26.826Z,36
2023-04-16T06:17:35.560Z,36
2023-04-16T06:27:44.189Z,36
2023-04-16T06:37:52.853Z,35
2023-04-16T06:48:01.632Z,35
2023-04-16T06:58:10.364Z,35
2023-04-16T07:08:19.043Z,35
2023-04-16T07:18:27.822Z,35
2023-04-16T07:28:36.603Z,32
2023-04-16T07:38:45.362Z,30
2023-04-16T07:48:54.301Z,28
2023-04-16T07:59:14.738Z,28
2023-04-16T08:09:11.078Z,28
2023-04-16T08:19:19.680Z,26
2023-04-16T08:29:28.502Z,25
2023-04-16T08:39:37.581Z,25
2023-04-16T08:49:46.718Z,25
2023-04-16T08:59:55.285Z,25
2023-04-16T09:10:05.423Z,23
2023-04-16T09:20:04.328Z,23
2023-04-16T09:30:13.128Z,22
2023-04-16T09:40:21.979Z,21
2023-04-16T09:50:31.192Z,21
2023-04-16T10:00:31.150Z,21
2023-04-16T10:10:38.932Z,20
2023-04-16T10:20:48.108Z,24
2023-04-16T10:30:57.079Z,25
2023-04-16T10:40:58.658Z,27
2023-04-16T10:51:07.368Z,28
2023-04-16T11:01:16.232Z,27
2023-04-16T11:11:26.011Z,29
2023-04-16T11:21:34.946Z,31
2023-04-16T11:31:43.722Z,31
2023-04-16T11:41:52.651Z,34
2023-04-16T11:52:01.452Z,35
2023-04-16T12:02:10.317Z,34
2023-04-16T12:12:18.895Z,36
2023-04-16T12:22:27.825Z,34
2023-04-16T12:32:36.386Z,34
2023-04-16T12:42:45.179Z,33
2023-04-16T12:52:54.184Z,33
2023-04-16T13:03:03.097Z,33
2023-04-16T13:13:12.021Z,33
2023-04-16T13:23:20.910Z,30
2023-04-16T13:33:25.458Z,32
2023-04-16T13:43:27.887Z,33
2023-04-16T13:53:27.770Z,31
2023-04-16T14:03:28.360Z,31
2023-04-16T14:13:40.242Z,33
2023-04-16T14:23:42.591Z,32
2023-04-16T14:33:51.642Z,29
2023-04-16T14:44:02.996Z,26
2023-04-16T14:54:03.964Z,26
2023-04-16T15:04:12.978Z,27
2023-04-16T15:14:21.815Z,27
2023-04-16T15:24:30.653Z,27
2023-04-16T15:34:40.848Z,30
2023-04-16T15:44:39.744Z,29
2023-04-16T15:54:48.680Z,29
2023-04-16T16:04:57.608Z,27
2023-04-16T16:15:06.482Z,28
2023-04-16T16:25:15.642Z,28
2023-04-16T16:35:25.146Z,30
2023-04-16T16:45:39.921Z,33
2023-04-16T16:55:41.116Z,36
2023-04-16T17:05:45.055Z,37
2023-04-16T17:15:48.128Z,37
2023-04-16T17:25:49.961Z,38
2023-04-16T17:35:54.762Z,38
2023-04-16T17:45:57.918Z,37
2023-04-16T17:56:04.377Z,36
2023-04-16T18:06:03.663Z,37
2023-04-16T18:16:08.035Z,39
2023-04-16T18:26:20.353Z,40
2023-04-16T18:36:24.466Z,41
2023-04-16T18:46:33.180Z,44
2023-04-16T18:56:43.258Z,45
2023-04-16T19:06:50.938Z,48
2023-04-16T19:17:00.709Z,47
2023-04-16T19:27:12.729Z,47
2023-04-16T19:37:16.341Z,47
2023-04-16T19:47:24.948Z,50
2023-04-16T19:57:33.593Z,52
2023-04-16T20:07:42.088Z,54
2023-04-16T20:17:50.328Z,55
2023-04-16T20:27:59.129Z,56
2023-04-16T20:38:10.408Z,56
2023-04-16T20:48:10.179Z,56
2023-04-16T20:58:18.394Z,55
2023-04-16T21:08:27.253Z,54
2023-04-16T21:18:36.124Z,54
2023-04-16T21:28:46.062Z,54
2023-04-16T21:38:54.334Z,56
2023-04-16T21:49:03.115Z,56
2023-04-16T21:59:11.871Z,53
2023-04-16T22:09:20.369Z,51
2023-04-16T22:19:29.135Z,50
2023-04-16T22:29:37.783Z,49
2023-04-16T22:39:46.460Z,48
2023-04-16T22:49:55.159Z,48
2023-04-16T23:00:03.829Z,48
2023-04-16T23:10:12.517Z,49
2023-04-16T23:20:21.450Z,48
2023-04-16T23:30:30.179Z,48
2023-04-16T23:40:38.820Z,48
2023-04-16T23:50:47.495Z,50
